createdAt,value
2023-01-20T00:01:37.206Z,7.16
2023-01-20T00:04:05.480Z,7.21
2023-01-20T00:06:32.702Z,7.20
2023-01-20T00:09:02.381Z,7.20
2023-01-20T00:11:29.825Z,7.24
2023-01-20T00:13:59.711Z,7.24
2023-01-20T00:16:27.370Z,7.27
2023-01-20T00:18:54.927Z,7.27
2023-01-20T00:21:22.894Z,7.28
2023-01-20T00:23:50.512Z,7.29
2023-01-20T00:26:20.808Z,7.34
2023-01-20T00:28:49.148Z,7.41
2023-01-20T00:31:27.116Z,7.41
2023-01-20T00:33:57.647Z,7.42
2023-01-20T00:36:27.335Z,7.43
2023-01-20T00:38:54.682Z,7.43
2023-01-20T00:41:22.183Z,7.42
2023-01-20T00:43:49.691Z,7.39
2023-01-20T00:46:16.975Z,7.35
2023-01-20T00:48:44.236Z,7.29
2023-01-20T00:51:11.374Z,7.23
2023-01-20T00:53:38.717Z,7.17
2023-01-20T00:56:06.370Z,7.15
2023-01-20T00:58:34.002Z,7.12
2023-01-20T01:01:01.549Z,7.07
2023-01-20T01:03:28.936Z,6.97
2023-01-20T01:06:12.622Z,6.87
2023-01-20T01:08:41.177Z,6.83
2023-01-20T01:11:09.050Z,6.78
2023-01-20T01:13:38.015Z,6.73
2023-01-20T01:16:11.230Z,6.72
2023-01-20T01:18:38.646Z,6.74
2023-01-20T01:21:11.975Z,6.79
2023-01-20T01:23:39.113Z,6.86
2023-01-20T01:26:06.148Z,6.85
2023-01-20T01:28:33.286Z,6.87
2023-01-20T01:31:02.390Z,6.92
2023-01-20T01:33:30.180Z,6.90
2023-01-20T01:35:59.318Z,6.88
2023-01-20T01:38:27.709Z,6.88
2023-01-20T01:40:55.578Z,6.85
2023-01-20T01:43:30.342Z,6.80
2023-01-20T01:45:57.949Z,6.79
2023-01-20T01:48:44.845Z,6.79
2023-01-20T01:51:25.250Z,6.78
2023-01-20T01:54:22.869Z,6.73
2023-01-20T01:56:50.823Z,6.63
2023-01-20T01:59:19.251Z,6.58
2023-01-20T02:01:52.094Z,6.57
2023-01-20T02:04:25.578Z,6.55
2023-01-20T02:07:20.197Z,6.52
2023-01-20T02:09:47.496Z,6.47
2023-01-20T02:12:20.383Z,6.40
2023-01-20T02:14:55.850Z,6.33
2023-01-20T02:17:36.123Z,6.27
2023-01-20T02:20:36.347Z,6.23
2023-01-20T02:23:38.401Z,6.16
2023-01-20T02:26:32.873Z,6.08
2023-01-20T02:29:43.160Z,6.07
2023-01-20T02:32:26.657Z,6.14
2023-01-20T02:35:12.566Z,6.15
2023-01-20T02:38:18.361Z,6.19
2023-01-20T02:40:57.009Z,6.29
2023-01-20T02:43:38.064Z,6.32
2023-01-20T02:46:24.899Z,6.32
2023-01-20T02:49:09.588Z,6.36
2023-01-20T02:52:01.603Z,6.37
2023-01-20T02:54:34.676Z,6.44
2023-01-20T02:57:05.858Z,6.57
2023-01-20T02:59:41.572Z,6.67
2023-01-20T03:02:22.677Z,6.75
2023-01-20T03:05:06.860Z,6.82
2023-01-20T03:07:37.618Z,6.84
2023-01-20T03:10:10.199Z,6.84
2023-01-20T03:12:48.344Z,6.84
2023-01-20T03:15:16.863Z,6.84
2023-01-20T03:17:44.175Z,6.85
2023-01-20T03:20:12.009Z,6.87
2023-01-20T03:22:39.215Z,6.89
2023-01-20T03:25:08.127Z,6.94
2023-01-20T03:27:35.376Z,6.97
2023-01-20T03:30:05.574Z,6.89
2023-01-20T03:32:32.771Z,6.84
2023-01-20T03:34:59.970Z,6.81
2023-01-20T03:37:27.216Z,6.76
2023-01-20T03:39:54.366Z,6.67
2023-01-20T03:42:39.167Z,6.63
2023-01-20T03:45:28.202Z,6.60
2023-01-20T03:48:09.084Z,6.53
2023-01-20T03:51:32.828Z,6.51
2023-01-20T03:54:06.643Z,6.56
2023-01-20T03:56:50.924Z,6.65
2023-01-20T03:59:20.271Z,6.73
2023-01-20T04:01:48.417Z,6.74
2023-01-20T04:04:18.966Z,6.78
2023-01-20T04:06:49.688Z,6.79
2023-01-20T04:09:24.503Z,6.82
2023-01-20T04:11:51.847Z,6.85
2023-01-20T04:14:19.056Z,6.89
2023-01-20T04:16:54.304Z,6.94
2023-01-20T04:19:21.635Z,7.03
2023-01-20T04:21:55.613Z,7.14
2023-01-20T04:24:37.055Z,7.23
2023-01-20T04:27:04.181Z,7.32
2023-01-20T04:29:31.252Z,7.41
2023-01-20T04:32:00.736Z,7.51
2023-01-20T04:34:28.079Z,7.59
2023-01-20T04:36:55.258Z,7.67
2023-01-20T04:39:22.466Z,7.74
2023-01-20T04:41:49.880Z,7.81
2023-01-20T04:44:17.088Z,7.86
2023-01-20T04:46:44.950Z,7.92
2023-01-20T04:49:12.005Z,7.97
2023-01-20T04:51:39.222Z,8.00
2023-01-20T04:54:06.537Z,8.01
2023-01-20T04:56:33.700Z,8.01
2023-01-20T04:59:00.797Z,8.00
2023-01-20T05:01:27.963Z,8.00
2023-01-20T05:03:55.158Z,8.00
2023-01-20T05:06:22.254Z,7.97
2023-01-20T05:08:49.326Z,7.91
2023-01-20T05:11:16.486Z,7.81
2023-01-20T05:13:43.612Z,7.71
2023-01-20T05:16:10.956Z,7.62
2023-01-20T05:18:38.170Z,7.55
2023-01-20T05:21:07.369Z,7.45
2023-01-20T05:23:35.008Z,7.39
2023-01-20T05:26:02.212Z,7.33
2023-01-20T05:28:29.477Z,7.30
2023-01-20T05:30:56.734Z,7.28
2023-01-20T05:33:23.877Z,7.23
2023-01-20T05:35:50.970Z,7.21
2023-01-20T05:38:18.001Z,7.21
2023-01-20T05:40:45.140Z,7.22
2023-01-20T05:43:13.084Z,7.22
2023-01-20T05:45:41.780Z,7.21
2023-01-20T05:48:08.909Z,7.21
2023-01-20T05:50:36.060Z,7.25
2023-01-20T05:53:03.117Z,7.28
2023-01-20T05:55:30.226Z,7.29
2023-01-20T05:58:01.291Z,7.28
2023-01-20T06:00:28.719Z,7.27
2023-01-20T06:02:55.974Z,7.30
2023-01-20T06:05:23.169Z,7.33
2023-01-20T06:07:50.474Z,7.31
2023-01-20T06:10:17.789Z,7.34
2023-01-20T06:12:52.396Z,7.35
2023-01-20T06:15:20.037Z,7.35
2023-01-20T06:17:47.177Z,7.38
2023-01-20T06:20:14.297Z,7.40
2023-01-20T06:22:41.479Z,7.39
2023-01-20T06:25:08.890Z,7.39
2023-01-20T06:27:36.931Z,7.43
2023-01-20T06:30:05.933Z,7.46
2023-01-20T06:32:33.081Z,7.48
2023-01-20T06:35:00.206Z,7.49
2023-01-20T06:37:27.398Z,7.51
2023-01-20T06:39:54.490Z,7.55
2023-01-20T06:42:21.512Z,7.59
2023-01-20T06:44:48.566Z,7.61
2023-01-20T06:47:15.662Z,7.63
2023-01-20T06:49:42.825Z,7.68
2023-01-20T06:52:09.881Z,7.75
2023-01-20T06:54:37.025Z,7.80
2023-01-20T06:57:04.442Z,7.82
2023-01-20T06:59:31.558Z,7.86
2023-01-20T07:01:58.874Z,7.90
2023-01-20T07:04:26.093Z,7.97
2023-01-20T07:06:53.221Z,8.04
2023-01-20T07:09:20.319Z,8.10
2023-01-20T07:11:47.423Z,8.15
2023-01-20T07:14:14.457Z,8.20
2023-01-20T07:16:41.581Z,8.23
2023-01-20T07:19:08.755Z,8.29
2023-01-20T07:21:36.100Z,8.37
2023-01-20T07:24:03.662Z,8.41
2023-01-20T07:26:31.283Z,8.42
2023-01-20T07:28:59.195Z,8.41
2023-01-20T07:31:30.730Z,8.45
2023-01-20T07:33:57.957Z,8.49
2023-01-20T07:36:25.346Z,8.58
2023-01-20T07:38:53.139Z,8.63
2023-01-20T07:41:22.687Z,8.67
2023-01-20T07:43:51.811Z,8.74
2023-01-20T07:46:20.430Z,8.85
2023-01-20T07:48:47.827Z,8.96
2023-01-20T07:51:16.653Z,9.01
2023-01-20T07:53:47.595Z,9.08
2023-01-20T07:56:27.123Z,9.20
2023-01-20T07:58:54.966Z,9.37
2023-01-20T08:01:30.428Z,9.53
2023-01-20T08:04:02.337Z,9.71
2023-01-20T08:06:30.088Z,9.89
2023-01-20T08:09:01.071Z,9.97
2023-01-20T08:11:28.858Z,9.98
2023-01-20T08:13:55.943Z,10.11
2023-01-20T08:16:23.236Z,10.29
2023-01-20T08:18:53.589Z,10.38
2023-01-20T08:21:26.054Z,10.52
2023-01-20T08:23:55.785Z,10.70
2023-01-20T08:26:27.316Z,10.86
2023-01-20T08:28:55.548Z,11.03
2023-01-20T08:31:24.348Z,11.15
2023-01-20T08:33:55.450Z,11.27
2023-01-20T08:36:28.608Z,11.48
2023-01-20T08:38:58.044Z,11.75
2023-01-20T08:41:30.042Z,11.99
2023-01-20T08:43:59.948Z,12.24
2023-01-20T08:46:27.600Z,12.50
2023-01-20T08:48:55.654Z,12.66
2023-01-20T08:51:41.485Z,12.75
2023-01-20T08:54:28.794Z,12.93
2023-01-20T08:56:56.022Z,13.12
2023-01-20T08:59:23.250Z,13.24
2023-01-20T09:01:50.460Z,13.15
2023-01-20T09:04:17.555Z,13.26
2023-01-20T09:06:49.646Z,13.38
2023-01-20T09:09:19.511Z,13.11
2023-01-20T09:11:50.428Z,13.00
2023-01-20T09:14:23.260Z,13.32
2023-01-20T09:16:50.918Z,13.11
2023-01-20T09:19:18.218Z,13.22
2023-01-20T09:21:45.335Z,13.43
2023-01-20T09:24:12.444Z,13.51
2023-01-20T09:26:39.716Z,13.21
2023-01-20T09:29:15.388Z,13.26
2023-01-20T09:31:48.871Z,13.20
2023-01-20T09:34:26.857Z,13.18
2023-01-20T09:37:20.411Z,13.02
2023-01-20T09:40:06.261Z,12.75
2023-01-20T09:43:16.589Z,12.81
2023-01-20T09:46:24.365Z,12.98
2023-01-20T09:49:48.408Z,13.10
2023-01-20T09:52:51.891Z,13.45
2023-01-20T09:55:48.008Z,13.37
2023-01-20T09:58:48.801Z,13.41
2023-01-20T10:01:31.151Z,13.63
2023-01-20T10:04:29.294Z,13.94
2023-01-20T10:07:42.562Z,14.18
2023-01-20T10:10:29.177Z,14.20
2023-01-20T10:13:08.196Z,14.02
2023-01-20T10:15:37.448Z,13.81
2023-01-20T10:18:34.948Z,13.66
2023-01-20T10:21:19.276Z,13.62
2023-01-20T10:23:55.548Z,13.51
2023-01-20T10:26:34.469Z,13.56
2023-01-20T10:29:03.844Z,13.71
2023-01-20T10:31:37.494Z,13.77
2023-01-20T10:34:15.312Z,13.76
2023-01-20T10:36:50.156Z,13.71
2023-01-20T10:39:46.513Z,13.74
2023-01-20T10:42:19.694Z,13.86
2023-01-20T10:44:50.635Z,13.79
2023-01-20T10:47:17.695Z,13.64
2023-01-20T10:49:48.957Z,13.67
2023-01-20T10:53:05.955Z,13.85
2023-01-20T10:55:57.218Z,14.25
2023-01-20T10:58:37.388Z,14.68
2023-01-20T11:01:08.720Z,14.67
2023-01-20T11:03:40.388Z,14.76
2023-01-20T11:06:16.816Z,14.90
2023-01-20T11:08:44.538Z,15.02
2023-01-20T11:11:17.442Z,15.32
2023-01-20T11:13:45.192Z,15.35
2023-01-20T11:16:20.074Z,15.34
2023-01-20T11:19:06.965Z,15.69
2023-01-20T11:21:36.433Z,15.82
2023-01-20T11:24:43.247Z,15.61
2023-01-20T11:27:21.816Z,15.21
2023-01-20T11:30:01.584Z,15.11
2023-01-20T11:32:33.693Z,15.12
2023-01-20T11:35:21.953Z,15.39
2023-01-20T11:37:49.359Z,15.94
2023-01-20T11:40:23.967Z,16.28
2023-01-20T11:42:53.408Z,16.66
2023-01-20T11:45:35.629Z,17.06
2023-01-20T11:48:17.811Z,17.22
2023-01-20T11:50:53.805Z,16.96
2023-01-20T11:53:24.233Z,16.51
2023-01-20T11:55:56.701Z,16.30
2023-01-20T11:58:27.821Z,16.36
2023-01-20T12:01:05.433Z,16.20
2023-01-20T12:03:51.850Z,16.57
2023-01-20T12:06:25.284Z,17.06
2023-01-20T12:09:05.058Z,17.28
2023-01-20T12:11:55.087Z,17.66
2023-01-20T12:14:41.821Z,18.01
2023-01-20T12:17:38.086Z,18.24
2023-01-20T12:20:26.930Z,18.44
2023-01-20T12:22:58.616Z,18.90
2023-01-20T12:25:31.540Z,19.12
2023-01-20T12:28:24.468Z,19.27
2023-01-20T12:31:19.825Z,19.21
2023-01-20T12:33:51.217Z,19.12
2023-01-20T12:36:40.428Z,19.16
2023-01-20T12:39:33.754Z,19.15
2023-01-20T12:42:32.766Z,19.13
2023-01-20T12:45:13.339Z,19.48
2023-01-20T12:48:24.925Z,19.54
2023-01-20T12:51:20.342Z,19.00
2023-01-20T12:54:27.135Z,19.25
2023-01-20T12:57:17.324Z,19.28
2023-01-20T13:00:41.054Z,19.07
2023-01-20T13:03:26.219Z,18.74
2023-01-20T13:06:34.209Z,18.75
2023-01-20T13:09:31.879Z,18.97
2023-01-20T13:12:18.436Z,18.35
2023-01-20T13:14:52.549Z,18.12
2023-01-20T13:17:38.486Z,18.04
2023-01-20T13:20:19.120Z,17.94
2023-01-20T13:22:46.257Z,17.96
2023-01-20T13:25:16.571Z,18.20
2023-01-20T13:27:44.922Z,17.86
2023-01-20T13:30:42.395Z,17.56
2023-01-20T13:33:33.801Z,16.98
2023-01-20T13:36:23.377Z,17.05
2023-01-20T13:39:40.235Z,17.02
2023-01-20T13:42:36.311Z,16.38
2023-01-20T13:45:12.607Z,15.87
2023-01-20T13:48:07.628Z,15.61
2023-01-20T13:50:39.109Z,15.44
2023-01-20T13:53:20.078Z,15.24
2023-01-20T13:55:47.813Z,14.95
2023-01-20T13:58:15.379Z,14.77
2023-01-20T14:00:43.710Z,14.67
2023-01-20T14:03:19.388Z,14.48
2023-01-20T14:05:52.623Z,14.36
2023-01-20T14:08:21.169Z,14.31
2023-01-20T14:10:48.766Z,14.20
2023-01-20T14:13:22.627Z,14.11
2023-01-20T14:15:55.562Z,13.81
2023-01-20T14:18:25.844Z,13.55
2023-01-20T14:21:04.235Z,13.39
2023-01-20T14:23:35.308Z,13.16
2023-01-20T14:26:11.386Z,12.97
2023-01-20T14:28:51.334Z,12.75
2023-01-20T14:31:32.508Z,12.53
2023-01-20T14:34:22.231Z,12.24
2023-01-20T14:36:49.991Z,11.81
2023-01-20T14:39:24.544Z,11.57
2023-01-20T14:42:00.238Z,11.34
2023-01-20T14:44:32.614Z,11.28
2023-01-20T14:47:02.889Z,11.16
2023-01-20T14:49:41.043Z,10.88
2023-01-20T14:52:37.294Z,10.58
2023-01-20T14:55:04.998Z,10.33
2023-01-20T14:57:39.943Z,10.22
2023-01-20T15:00:19.623Z,10.11
2023-01-20T15:03:14.879Z,10.02
2023-01-20T15:06:05.107Z,9.83
2023-01-20T15:08:32.273Z,9.50
2023-01-20T15:11:20.771Z,9.36
2023-01-20T15:13:50.924Z,9.24
2023-01-20T15:16:35.987Z,9.11
2023-01-20T15:19:15.701Z,8.90
2023-01-20T15:21:47.923Z,8.68
2023-01-20T15:24:21.239Z,8.56
2023-01-20T15:26:53.822Z,8.44
2023-01-20T15:29:36.280Z,8.35
2023-01-20T15:32:11.772Z,8.34
2023-01-20T15:34:38.897Z,8.28
2023-01-20T15:37:18.068Z,8.15
2023-01-20T15:39:45.354Z,8.03
2023-01-20T15:42:14.653Z,7.95
2023-01-20T15:44:41.844Z,7.94
2023-01-20T15:47:30.780Z,7.71
2023-01-20T15:49:58.305Z,7.54
2023-01-20T15:52:25.898Z,7.41
2023-01-20T15:54:53.100Z,7.33
2023-01-20T15:57:20.272Z,7.32
2023-01-20T15:59:49.158Z,7.36
2023-01-20T16:02:22.112Z,7.22
2023-01-20T16:04:49.876Z,7.06
2023-01-20T16:07:19.951Z,6.89
2023-01-20T16:09:47.513Z,6.79
2023-01-20T16:12:17.013Z,6.72
2023-01-20T16:14:45.202Z,6.51
2023-01-20T16:17:21.435Z,6.39
2023-01-20T16:19:49.523Z,6.27
2023-01-20T16:22:16.889Z,6.14
2023-01-20T16:24:44.131Z,6.07
2023-01-20T16:27:19.476Z,5.99
2023-01-20T16:29:47.326Z,5.97
2023-01-20T16:32:17.120Z,5.98
2023-01-20T16:34:46.118Z,5.98
2023-01-20T16:37:13.920Z,5.97
2023-01-20T16:39:41.118Z,5.91
2023-01-20T16:42:15.685Z,5.82
2023-01-20T16:44:42.827Z,5.70
2023-01-20T16:47:09.912Z,5.65
2023-01-20T16:49:38.020Z,5.65
2023-01-20T16:52:05.405Z,5.59
2023-01-20T16:54:32.509Z,5.54
2023-01-20T16:56:59.541Z,5.51
2023-01-20T16:59:26.638Z,5.50
2023-01-20T17:01:53.724Z,5.48
2023-01-20T17:04:20.966Z,5.42
2023-01-20T17:06:47.995Z,5.33
2023-01-20T17:09:15.107Z,5.20
2023-01-20T17:11:42.188Z,5.06
2023-01-20T17:14:10.806Z,4.92
2023-01-20T17:16:38.965Z,4.83
2023-01-20T17:19:06.293Z,4.77
2023-01-20T17:21:37.555Z,4.69
2023-01-20T17:24:05.638Z,4.57
2023-01-20T17:26:33.097Z,4.47
2023-01-20T17:29:03.351Z,4.38
2023-01-20T17:31:33.760Z,4.30
2023-01-20T17:34:00.884Z,4.25
2023-01-20T17:36:29.029Z,4.21
2023-01-20T17:38:57.377Z,4.18
2023-01-20T17:41:24.465Z,4.14
2023-01-20T17:43:51.510Z,4.07
2023-01-20T17:46:23.038Z,3.97
2023-01-20T17:48:50.586Z,3.90
2023-01-20T17:51:21.115Z,3.86
2023-01-20T17:53:49.307Z,3.83
2023-01-20T17:56:18.495Z,3.77
2023-01-20T17:58:46.603Z,3.71
2023-01-20T18:01:26.933Z,3.65
2023-01-20T18:03:56.367Z,3.66
2023-01-20T18:06:25.059Z,3.70
2023-01-20T18:08:58.276Z,3.77
2023-01-20T18:11:28.842Z,3.88
2023-01-20T18:13:57.485Z,3.93
2023-01-20T18:16:29.575Z,4.04
2023-01-20T18:19:00.667Z,4.09
2023-01-20T18:21:36.702Z,4.11
2023-01-20T18:24:07.050Z,4.20
2023-01-20T18:26:37.132Z,4.21
2023-01-20T18:29:13.334Z,4.25
2023-01-20T18:31:41.113Z,4.23
2023-01-20T18:34:11.277Z,4.22
2023-01-20T18:36:41.562Z,4.26
2023-01-20T18:39:17.850Z,4.27
2023-01-20T18:41:45.217Z,4.27
2023-01-20T18:44:12.919Z,4.29
2023-01-20T18:46:40.641Z,4.31
2023-01-20T18:49:10.050Z,4.33
2023-01-20T18:51:37.099Z,4.30
2023-01-20T18:54:09.084Z,4.27
2023-01-20T18:56:36.487Z,4.25
2023-01-20T18:59:05.926Z,4.24
2023-01-20T19:01:39.091Z,4.23
2023-01-20T19:04:09.647Z,4.22
2023-01-20T19:06:40.434Z,4.21
2023-01-20T19:09:08.513Z,4.22
2023-01-20T19:11:39.269Z,4.21
2023-01-20T19:14:11.586Z,4.22
2023-01-20T19:16:44.429Z,4.26
2023-01-20T19:19:12.005Z,4.35
2023-01-20T19:21:39.143Z,4.36
2023-01-20T19:24:07.517Z,4.40
2023-01-20T19:26:37.148Z,4.42
2023-01-20T19:29:12.072Z,4.38
2023-01-20T19:31:39.785Z,4.34
2023-01-20T19:34:08.597Z,4.31
2023-01-20T19:36:36.471Z,4.35
2023-01-20T19:39:04.857Z,4.38
2023-01-20T19:41:33.819Z,4.45
2023-01-20T19:44:03.703Z,4.52
2023-01-20T19:46:34.657Z,4.56
2023-01-20T19:49:02.421Z,4.48
2023-01-20T19:51:30.785Z,4.50
2023-01-20T19:54:00.598Z,4.51
2023-01-20T19:56:31.660Z,4.58
2023-01-20T19:59:00.483Z,4.68
2023-01-20T20:01:34.135Z,4.71
2023-01-20T20:04:12.160Z,4.73
2023-01-20T20:06:48.267Z,4.70
2023-01-20T20:09:19.650Z,4.67
2023-01-20T20:11:47.992Z,4.66
2023-01-20T20:14:19.415Z,4.70
2023-01-20T20:16:47.692Z,4.73
2023-01-20T20:19:18.235Z,4.73
2023-01-20T20:21:45.654Z,4.73
2023-01-20T20:24:15.035Z,4.70
2023-01-20T20:26:45.449Z,4.66
2023-01-20T20:29:15.251Z,4.68
2023-01-20T20:31:42.825Z,4.70
2023-01-20T20:34:14.815Z,4.72
2023-01-20T20:36:41.941Z,4.76
2023-01-20T20:39:14.239Z,4.78
2023-01-20T20:41:42.237Z,4.78
2023-01-20T20:44:10.558Z,4.72
2023-01-20T20:46:37.872Z,4.61
2023-01-20T20:49:05.031Z,4.49
2023-01-20T20:51:33.602Z,4.40
2023-01-20T20:54:02.483Z,4.38
2023-01-20T20:56:33.951Z,4.33
2023-01-20T20:59:03.120Z,4.27
2023-01-20T21:01:33.605Z,4.20
2023-01-20T21:04:04.293Z,4.18
2023-01-20T21:06:32.377Z,4.20
2023-01-20T21:09:00.073Z,4.23
2023-01-20T21:11:28.143Z,4.21
2023-01-20T21:13:55.408Z,4.22
2023-01-20T21:16:24.173Z,4.30
2023-01-20T21:18:55.385Z,4.38
2023-01-20T21:21:23.363Z,4.49
2023-01-20T21:23:54.438Z,4.62
2023-01-20T21:26:24.342Z,4.73
2023-01-20T21:28:52.497Z,4.71
2023-01-20T21:31:22.795Z,4.72
2023-01-20T21:33:59.853Z,4.77
2023-01-20T21:36:31.389Z,4.74
2023-01-20T21:39:00.277Z,4.74
2023-01-20T21:41:28.022Z,4.77
2023-01-20T21:44:13.555Z,4.81
2023-01-20T21:46:40.816Z,4.82
2023-01-20T21:49:27.015Z,4.82
2023-01-20T21:52:13.417Z,4.85
2023-01-20T21:54:40.733Z,4.93
2023-01-20T21:57:08.414Z,5.00
2023-01-20T21:59:35.744Z,5.03
2023-01-20T22:02:03.328Z,5.09
2023-01-20T22:04:31.390Z,5.14
2023-01-20T22:06:58.432Z,5.22
2023-01-20T22:09:25.565Z,5.36
2023-01-20T22:11:52.679Z,5.60
2023-01-20T22:14:19.831Z,5.86
2023-01-20T22:16:46.941Z,6.13
2023-01-20T22:19:14.195Z,6.40
2023-01-20T22:21:41.738Z,6.67
2023-01-20T22:24:10.017Z,6.90
2023-01-20T22:26:37.101Z,7.11
2023-01-20T22:29:04.395Z,7.27
2023-01-20T22:31:33.375Z,7.41
2023-01-20T22:34:04.677Z,7.49
2023-01-20T22:36:33.150Z,7.53
2023-01-20T22:39:00.530Z,7.57
2023-01-20T22:41:27.929Z,7.60
2023-01-20T22:43:55.214Z,7.63
2023-01-20T22:46:24.819Z,7.66
2023-01-20T22:48:53.264Z,7.64
2023-01-20T22:51:23.509Z,7.58
2023-01-20T22:53:53.957Z,7.55
2023-01-20T22:56:24.843Z,7.49
2023-01-20T22:58:52.515Z,7.42
2023-01-20T23:01:23.580Z,7.32
2023-01-20T23:03:59.972Z,7.23
2023-01-20T23:06:31.193Z,7.12
2023-01-20T23:09:04.475Z,7.03
2023-01-20T23:11:33.305Z,6.95
2023-01-20T23:14:00.382Z,6.91
2023-01-20T23:16:27.789Z,6.86
2023-01-20T23:18:54.906Z,6.81
2023-01-20T23:21:22.253Z,6.75
2023-01-20T23:23:53.760Z,6.70
2023-01-20T23:26:24.332Z,6.66
2023-01-20T23:28:53.019Z,6.63
2023-01-20T23:31:21.358Z,6.59
2023-01-20T23:33:49.211Z,6.54
2023-01-20T23:36:22.307Z,6.51
2023-01-20T23:38:49.734Z,6.49
2023-01-20T23:41:16.897Z,6.48
2023-01-20T23:43:43.948Z,6.47
2023-01-20T23:46:11.346Z,6.46
2023-01-20T23:48:38.975Z,6.46
2023-01-20T23:51:06.678Z,6.48
2023-01-20T23:53:38.111Z,6.51
2023-01-20T23:56:10.316Z,6.52
2023-01-20T23:58:37.500Z,6.56
